createdAt,value
2022-11-28T00:02:11.007Z,100010.63
2022-11-28T00:04:39.416Z,100007.12
2022-11-28T00:07:08.185Z,100006.57
2022-11-28T00:09:36.612Z,99999.56
2022-11-28T00:12:04.964Z,99996.77
2022-11-28T00:14:33.295Z,99993.81
2022-11-28T00:17:01.715Z,99996.80
2022-11-28T00:19:30.009Z,99995.95
2022-11-28T00:21:58.356Z,99997.04
2022-11-28T00:24:26.728Z,99989.15
2022-11-28T00:26:55.003Z,99986.52
2022-11-28T00:29:23.296Z,99981.27
2022-11-28T00:31:51.756Z,99984.43
2022-11-28T00:34:20.162Z,99985.27
2022-11-28T00:36:49.161Z,99979.48
2022-11-28T00:39:18.576Z,99981.55
2022-11-28T00:41:46.871Z,99982.29
2022-11-28T00:44:15.839Z,99983.93
2022-11-28T00:46:44.215Z,99985.00
2022-11-28T00:49:12.928Z,99982.71
2022-11-28T00:51:41.173Z,99984.98
2022-11-28T00:54:10.559Z,99990.05
2022-11-28T00:56:40.567Z,99993.21
2022-11-28T00:59:09.007Z,99990.05
2022-11-28T01:01:41.484Z,99988.28
2022-11-28T01:04:13.755Z,99989.13
2022-11-28T01:06:48.144Z,99989.64
2022-11-28T01:09:22.991Z,99986.02
2022-11-28T01:11:53.599Z,99978.18
2022-11-28T01:14:24.247Z,99977.65
2022-11-28T01:16:53.187Z,99978.89
2022-11-28T01:19:21.994Z,99975.59
2022-11-28T01:21:50.344Z,99975.42
2022-11-28T01:24:18.915Z,99976.83
2022-11-28T01:26:50.884Z,99972.21
2022-11-28T01:29:19.241Z,99965.00
2022-11-28T01:31:47.447Z,99964.45
2022-11-28T01:34:16.008Z,99965.69
2022-11-28T01:36:44.421Z,99966.55
2022-11-28T01:39:13.473Z,99959.55
2022-11-28T01:41:41.765Z,99956.38
2022-11-28T01:44:16.128Z,99951.30
2022-11-28T01:46:44.597Z,99943.05
2022-11-28T01:49:26.269Z,99941.13
2022-11-28T01:52:01.559Z,99937.42
2022-11-28T01:54:31.545Z,99938.28
2022-11-28T01:57:07.191Z,99935.30
2022-11-28T01:59:45.158Z,99934.98
2022-11-28T02:02:20.345Z,99931.52
2022-11-28T02:04:50.743Z,99930.52
2022-11-28T02:07:20.376Z,99924.17
2022-11-28T02:09:49.094Z,99922.58
2022-11-28T02:12:30.962Z,99920.46
2022-11-28T02:15:23.655Z,99921.67
2022-11-28T02:18:10.893Z,99914.56
2022-11-28T02:20:42.028Z,99909.34
2022-11-28T02:23:21.656Z,99903.05
2022-11-28T02:26:28.551Z,99892.90
2022-11-28T02:29:23.015Z,99888.91
2022-11-28T02:32:25.408Z,99886.11
2022-11-28T02:35:15.338Z,99880.31
2022-11-28T02:38:14.691Z,99880.27
2022-11-28T02:41:05.146Z,99881.64
2022-11-28T02:44:04.573Z,99884.61
2022-11-28T02:46:52.421Z,99884.39
2022-11-28T02:49:33.263Z,99882.79
2022-11-28T02:52:13.205Z,99887.89
2022-11-28T02:54:43.151Z,99884.98
2022-11-28T02:57:11.667Z,99882.71
2022-11-28T02:59:39.955Z,99887.09
2022-11-28T03:02:18.783Z,99879.89
2022-11-28T03:04:57.788Z,99878.61
2022-11-28T03:07:32.298Z,99876.29
2022-11-28T03:10:12.616Z,99872.04
2022-11-28T03:12:43.797Z,99873.63
2022-11-28T03:15:17.750Z,99873.12
2022-11-28T03:18:09.667Z,99873.64
2022-11-28T03:21:01.784Z,99872.95
2022-11-28T03:24:08.701Z,99873.48
2022-11-28T03:26:44.084Z,99870.16
2022-11-28T03:29:23.770Z,99868.92
2022-11-28T03:31:57.387Z,99866.81
2022-11-28T03:34:33.239Z,99865.23
2022-11-28T03:37:13.541Z,99861.72
2022-11-28T03:39:48.552Z,99859.41
2022-11-28T03:42:25.040Z,99854.49
2022-11-28T03:45:01.905Z,99854.64
2022-11-28T03:47:37.757Z,99855.50
2022-11-28T03:50:11.123Z,99852.03
2022-11-28T03:52:51.219Z,99846.82
2022-11-28T03:55:28.221Z,99846.43
2022-11-28T03:58:15.229Z,99847.46
2022-11-28T04:01:09.750Z,99845.17
2022-11-28T04:03:47.151Z,99843.77
2022-11-28T04:06:19.173Z,99842.55
2022-11-28T04:09:15.347Z,99844.28
2022-11-28T04:12:00.060Z,99838.13
2022-11-28T04:14:49.431Z,99837.23
2022-11-28T04:17:35.600Z,99839.98
2022-11-28T04:20:27.403Z,99838.92
2022-11-28T04:23:01.248Z,99836.00
2022-11-28T04:25:34.394Z,99835.14
2022-11-28T04:28:08.840Z,99831.09
2022-11-28T04:30:39.035Z,99826.30
2022-11-28T04:33:11.665Z,99822.43
2022-11-28T04:35:44.207Z,99823.11
2022-11-28T04:38:14.322Z,99822.05
2022-11-28T04:40:54.846Z,99817.97
2022-11-28T04:43:50.932Z,99816.40
2022-11-28T04:46:25.413Z,99813.23
2022-11-28T04:48:54.780Z,99804.11
2022-11-28T04:51:51.072Z,99802.49
2022-11-28T04:54:41.055Z,99800.58
2022-11-28T04:57:25.019Z,99802.18
2022-11-28T04:59:56.548Z,99810.77
2022-11-28T05:02:26.095Z,99814.11
2022-11-28T05:04:56.021Z,99812.86
2022-11-28T05:07:24.618Z,99810.90
2022-11-28T05:09:52.889Z,99811.40
2022-11-28T05:12:21.160Z,99807.20
2022-11-28T05:14:49.396Z,99811.05
2022-11-28T05:17:17.700Z,99806.64
2022-11-28T05:19:46.000Z,99806.79
2022-11-28T05:22:14.159Z,99808.36
2022-11-28T05:24:42.434Z,99810.48
2022-11-28T05:27:11.710Z,99813.09
2022-11-28T05:29:46.908Z,99812.94
2022-11-28T05:32:18.108Z,99812.77
2022-11-28T05:34:46.476Z,99813.64
2022-11-28T05:37:15.770Z,99811.89
2022-11-28T05:39:44.282Z,99810.90
2022-11-28T05:42:12.674Z,99814.95
2022-11-28T05:44:40.899Z,99814.15
2022-11-28T05:47:09.297Z,99815.89
2022-11-28T05:49:37.522Z,99818.66
2022-11-28T05:52:05.790Z,99812.50
2022-11-28T05:54:34.543Z,99814.59
2022-11-28T05:57:03.293Z,99812.13
2022-11-28T05:59:31.638Z,99811.23
2022-11-28T06:02:00.181Z,99812.65
2022-11-28T06:04:28.657Z,99816.17
2022-11-28T06:06:56.947Z,99819.86
2022-11-28T06:09:26.175Z,99814.02
2022-11-28T06:11:54.733Z,99815.92
2022-11-28T06:14:22.931Z,99816.61
2022-11-28T06:16:51.271Z,99818.55
2022-11-28T06:19:19.924Z,99816.63
2022-11-28T06:21:50.572Z,99813.83
2022-11-28T06:24:18.881Z,99815.40
2022-11-28T06:26:47.199Z,99815.73
2022-11-28T06:29:15.739Z,99814.48
2022-11-28T06:31:44.235Z,99814.29
2022-11-28T06:34:13.206Z,99813.91
2022-11-28T06:36:41.534Z,99815.86
2022-11-28T06:39:14.351Z,99812.19
2022-11-28T06:41:43.456Z,99808.16
2022-11-28T06:44:16.681Z,99807.13
2022-11-28T06:46:45.388Z,99807.64
2022-11-28T06:49:14.478Z,99804.13
2022-11-28T06:51:43.175Z,99805.81
2022-11-28T06:54:12.047Z,99805.24
2022-11-28T06:56:42.869Z,99804.80
2022-11-28T06:59:12.176Z,99807.70
2022-11-28T07:01:41.332Z,99809.54
2022-11-28T07:04:10.374Z,99810.54
2022-11-28T07:06:38.584Z,99809.40
2022-11-28T07:09:06.880Z,99808.45
2022-11-28T07:11:35.192Z,99803.09
2022-11-28T07:14:04.003Z,99803.93
2022-11-28T07:16:33.877Z,99803.34
2022-11-28T07:19:02.950Z,99799.40
2022-11-28T07:21:31.512Z,99800.84
2022-11-28T07:24:00.213Z,99797.92
2022-11-28T07:26:28.879Z,99797.83
2022-11-28T07:28:58.447Z,99798.75
2022-11-28T07:31:32.007Z,99793.95
2022-11-28T07:34:03.726Z,99794.54
2022-11-28T07:36:32.288Z,99790.23
2022-11-28T07:39:03.206Z,99788.40
2022-11-28T07:41:32.109Z,99786.54
2022-11-28T07:44:05.453Z,99788.39
2022-11-28T07:46:34.397Z,99790.23
2022-11-28T07:49:04.616Z,99785.92
2022-11-28T07:51:34.791Z,99781.20
2022-11-28T07:54:05.095Z,99781.73
2022-11-28T07:57:04.505Z,99780.88
2022-11-28T07:59:25.227Z,99784.04
2022-11-28T08:01:54.245Z,99785.25
2022-11-28T08:04:23.215Z,99783.56
2022-11-28T08:06:51.649Z,99782.23
2022-11-28T08:09:19.866Z,99782.14
2022-11-28T08:11:48.244Z,99782.40
2022-11-28T08:14:16.844Z,99781.38
2022-11-28T08:16:45.429Z,99781.98
2022-11-28T08:19:14.088Z,99779.60
2022-11-28T08:21:42.891Z,99776.88
2022-11-28T08:24:11.928Z,99776.23
2022-11-28T08:26:40.208Z,99780.73
2022-11-28T08:29:10.064Z,99778.33
2022-11-28T08:31:40.079Z,99776.73
2022-11-28T08:34:11.050Z,99777.91
2022-11-28T08:36:39.962Z,99778.09
2022-11-28T08:39:24.776Z,99777.54
2022-11-28T08:41:59.164Z,99776.63
2022-11-28T08:44:30.406Z,99772.27
2022-11-28T08:46:59.190Z,99769.83
2022-11-28T08:49:27.464Z,99771.65
2022-11-28T08:51:55.684Z,99776.13
2022-11-28T08:54:24.533Z,99776.52
2022-11-28T08:56:52.847Z,99776.61
2022-11-28T08:59:21.317Z,99772.98
2022-11-28T09:01:52.235Z,99769.99
2022-11-28T09:04:22.368Z,99767.23
2022-11-28T09:06:51.608Z,99765.42
2022-11-28T09:09:19.907Z,99766.73
2022-11-28T09:11:48.368Z,99768.96
2022-11-28T09:14:16.673Z,99766.77
2022-11-28T09:16:45.048Z,99762.63
2022-11-28T09:19:13.583Z,99759.42
2022-11-28T09:21:42.276Z,99758.66
2022-11-28T09:24:11.899Z,99758.28
2022-11-28T09:26:40.413Z,99751.86
2022-11-28T09:29:08.772Z,99747.29
2022-11-28T09:31:37.016Z,99738.75
2022-11-28T09:34:05.701Z,99734.23
2022-11-28T09:36:34.174Z,99728.84
2022-11-28T09:39:02.627Z,99726.23
2022-11-28T09:41:49.368Z,99719.66
2022-11-28T09:44:26.466Z,99716.66
2022-11-28T09:47:00.463Z,99711.98
2022-11-28T09:49:38.573Z,99706.17
2022-11-28T09:52:39.778Z,99705.30
2022-11-28T09:55:27.069Z,99702.00
2022-11-28T09:58:01.201Z,99693.02
2022-11-28T10:00:38.768Z,99689.87
2022-11-28T10:03:16.535Z,99690.98
2022-11-28T10:06:20.195Z,99684.70
2022-11-28T10:09:10.173Z,99686.77
2022-11-28T10:12:06.024Z,99681.23
2022-11-28T10:14:40.411Z,99675.77
2022-11-28T10:17:33.629Z,99670.62
2022-11-28T10:20:19.087Z,99665.42
2022-11-28T10:22:53.527Z,99664.86
2022-11-28T10:25:37.880Z,99664.23
2022-11-28T10:28:47.901Z,99663.64
2022-11-28T10:31:38.797Z,99664.20
2022-11-28T10:34:26.876Z,99661.89
2022-11-28T10:37:29.791Z,99661.05
2022-11-28T10:40:19.649Z,99657.90
2022-11-28T10:42:56.429Z,99652.64
2022-11-28T10:45:32.457Z,99652.68
2022-11-28T10:48:39.057Z,99646.86
2022-11-28T10:51:25.043Z,99645.66
2022-11-28T10:54:12.453Z,99645.06
2022-11-28T10:56:49.598Z,99643.74
2022-11-28T10:59:42.964Z,99638.91
2022-11-28T11:02:45.090Z,99635.77
2022-11-28T11:05:17.932Z,99633.80
2022-11-28T11:07:55.641Z,99632.81
2022-11-28T11:11:04.069Z,99633.38
2022-11-28T11:13:35.647Z,99632.54
2022-11-28T11:16:11.553Z,99631.09
2022-11-28T11:18:42.921Z,99629.85
2022-11-28T11:21:19.140Z,99633.11
2022-11-28T11:23:48.998Z,99635.56
2022-11-28T11:26:41.293Z,99632.98
2022-11-28T11:29:29.283Z,99634.06
2022-11-28T11:32:03.693Z,99634.02
2022-11-28T11:34:43.105Z,99636.44
2022-11-28T11:37:34.615Z,99638.45
2022-11-28T11:40:18.523Z,99637.23
2022-11-28T11:42:58.777Z,99636.18
2022-11-28T11:45:31.989Z,99633.86
2022-11-28T11:48:01.963Z,99628.66
2022-11-28T11:50:33.333Z,99631.48
2022-11-28T11:53:12.554Z,99632.17
2022-11-28T11:55:51.575Z,99626.67
2022-11-28T11:58:32.920Z,99626.70
2022-11-28T12:01:02.609Z,99624.17
2022-11-28T12:03:42.220Z,99619.93
2022-11-28T12:06:23.783Z,99619.14
2022-11-28T12:08:58.643Z,99616.28
2022-11-28T12:11:32.296Z,99616.59
2022-11-28T12:14:19.590Z,99616.62
2022-11-28T12:17:14.303Z,99618.19
2022-11-28T12:20:18.981Z,99617.92
2022-11-28T12:23:05.711Z,99616.95
2022-11-28T12:26:01.816Z,99617.75
2022-11-28T12:29:11.309Z,99617.13
2022-11-28T12:32:01.272Z,99616.04
2022-11-28T12:34:43.099Z,99616.48
2022-11-28T12:37:42.040Z,99623.66
2022-11-28T12:40:32.762Z,99625.34
2022-11-28T12:43:00.928Z,99625.91
2022-11-28T12:45:47.445Z,99628.73
2022-11-28T12:48:27.659Z,99624.77
2022-11-28T12:51:10.805Z,99623.77
2022-11-28T12:53:46.061Z,99620.42
2022-11-28T12:56:49.708Z,99620.88
2022-11-28T12:59:40.407Z,99618.36
2022-11-28T13:02:33.363Z,99618.16
2022-11-28T13:05:19.601Z,99616.14
2022-11-28T13:08:06.900Z,99613.30
2022-11-28T13:11:02.496Z,99607.20
2022-11-28T13:14:00.206Z,99608.70
2022-11-28T13:16:51.747Z,99610.73
2022-11-28T13:19:20.257Z,99610.58
2022-11-28T13:22:10.324Z,99613.36
2022-11-28T13:24:53.640Z,99609.95
2022-11-28T13:27:44.613Z,99607.91
2022-11-28T13:30:31.387Z,99602.72
2022-11-28T13:33:00.070Z,99605.75
2022-11-28T13:35:29.170Z,99605.78
2022-11-28T13:41:35.193Z,99605.08
2022-11-28T13:44:06.099Z,99606.83
2022-11-28T13:46:34.775Z,99602.48
2022-11-28T13:49:15.377Z,99599.13
2022-11-28T13:51:44.349Z,99599.60
2022-11-28T13:54:19.397Z,99602.02
2022-11-28T13:57:04.052Z,99601.84
2022-11-28T13:59:36.112Z,99602.14
2022-11-28T14:02:23.308Z,99600.50
2022-11-28T14:04:51.967Z,99601.73
2022-11-28T14:07:33.243Z,99599.02
2022-11-28T14:10:26.833Z,99597.80
2022-11-28T14:13:14.151Z,99601.88
2022-11-28T14:15:53.734Z,99606.63
2022-11-28T14:18:58.952Z,99606.73
2022-11-28T14:21:50.090Z,99606.69
2022-11-28T14:24:21.882Z,99604.69
2022-11-28T14:26:59.220Z,99602.73
2022-11-28T14:29:37.229Z,99603.89
2022-11-28T14:32:28.854Z,99598.16
2022-11-28T14:34:55.682Z,99598.80
2022-11-28T14:37:27.636Z,99600.56
2022-11-28T14:39:57.755Z,99605.84
2022-11-28T14:42:58.754Z,99607.00
2022-11-28T14:45:33.000Z,99606.64
2022-11-28T14:48:16.135Z,99609.08
2022-11-28T14:50:59.336Z,99608.30
2022-11-28T14:53:34.706Z,99610.77
2022-11-28T14:56:11.767Z,99611.56
2022-11-28T14:58:45.448Z,99612.77
2022-11-28T15:01:25.826Z,99611.10
2022-11-28T15:04:04.561Z,99612.18
2022-11-28T15:06:38.912Z,99611.61
2022-11-28T15:09:13.293Z,99616.36
2022-11-28T15:12:08.658Z,99619.36
2022-11-28T15:14:40.162Z,99615.56
2022-11-28T15:17:14.207Z,99615.89
2022-11-28T15:19:46.538Z,99615.67
2022-11-28T15:22:41.317Z,99619.50
2022-11-28T15:25:24.977Z,99618.02
2022-11-28T15:27:55.580Z,99619.33
2022-11-28T15:30:26.909Z,99620.50
2022-11-28T15:33:00.424Z,99615.89
2022-11-28T15:35:29.148Z,99616.33
2022-11-28T15:37:58.511Z,99615.19
2022-11-28T15:40:33.798Z,99617.55
2022-11-28T15:43:08.051Z,99617.13
2022-11-28T15:45:42.949Z,99617.39
2022-11-28T15:48:40.040Z,99615.04
2022-11-28T15:51:28.139Z,99612.85
2022-11-28T15:53:56.830Z,99608.23
2022-11-28T15:56:26.028Z,99608.73
2022-11-28T15:58:54.477Z,99610.23
2022-11-28T16:01:26.409Z,99610.66
2022-11-28T16:03:56.936Z,99609.22
2022-11-28T16:06:30.060Z,99613.31
2022-11-28T16:09:04.228Z,99613.39
2022-11-28T16:11:34.800Z,99615.54
2022-11-28T16:14:11.367Z,99617.02
2022-11-28T16:16:39.997Z,99619.52
2022-11-28T16:19:34.191Z,99620.02
2022-11-28T16:22:06.448Z,99616.34
2022-11-28T16:24:52.644Z,99613.55
2022-11-28T16:27:30.348Z,99615.27
2022-11-28T16:29:58.982Z,99615.07
2022-11-28T16:32:39.580Z,99611.94
2022-11-28T16:35:12.551Z,99616.80
2022-11-28T16:37:42.427Z,99616.24
2022-11-28T16:40:15.809Z,99618.16
2022-11-28T16:42:55.964Z,99618.32
2022-11-28T16:45:27.930Z,99617.55
2022-11-28T16:48:19.569Z,99617.65
2022-11-28T16:51:03.021Z,99615.32
2022-11-28T16:53:45.127Z,99614.39
2022-11-28T16:56:43.101Z,99614.33
2022-11-28T16:59:19.008Z,99616.01
2022-11-28T17:01:51.991Z,99616.50
2022-11-28T17:04:29.675Z,99618.19
2022-11-28T17:07:05.353Z,99614.63
2022-11-28T17:09:34.133Z,99615.59
2022-11-28T17:12:06.315Z,99614.10
2022-11-28T17:14:35.187Z,99615.09
2022-11-28T17:17:11.855Z,99612.58
2022-11-28T17:19:41.065Z,99613.67
2022-11-28T17:22:18.186Z,99610.19
2022-11-28T17:24:48.619Z,99611.93
2022-11-28T17:27:16.953Z,99611.93
2022-11-28T17:29:45.363Z,99611.75
2022-11-28T17:32:15.426Z,99614.98
2022-11-28T17:34:44.049Z,99614.65
2022-11-28T17:37:12.909Z,99615.06
2022-11-28T17:40:01.156Z,99616.52
2022-11-28T17:42:29.469Z,99620.39
2022-11-28T17:44:57.935Z,99618.61
2022-11-28T17:47:26.386Z,99617.86
2022-11-28T17:49:55.716Z,99615.03
2022-11-28T17:52:30.466Z,99615.10
2022-11-28T17:55:06.975Z,99615.00
2022-11-28T17:57:38.667Z,99613.27
2022-11-28T18:00:15.650Z,99612.84
2022-11-28T18:02:45.760Z,99613.97
2022-11-28T18:05:14.136Z,99608.34
2022-11-28T18:07:42.748Z,99606.92
2022-11-28T18:10:12.862Z,99604.89
2022-11-28T18:12:41.709Z,99607.37
2022-11-28T18:15:11.060Z,99608.63
2022-11-28T18:17:41.489Z,99607.25
2022-11-28T18:20:11.383Z,99605.02
2022-11-28T18:22:39.794Z,99607.38
2022-11-28T18:25:08.888Z,99605.56
2022-11-28T18:27:37.593Z,99604.48
2022-11-28T18:30:07.152Z,99607.15
2022-11-28T18:32:35.377Z,99601.27
2022-11-28T18:35:03.948Z,99603.19
2022-11-28T18:37:32.480Z,99604.48
2022-11-28T18:40:03.125Z,99603.05
2022-11-28T18:42:35.239Z,99602.69
2022-11-28T18:45:03.998Z,99607.38
2022-11-28T18:47:32.303Z,99607.70
2022-11-28T18:50:00.640Z,99607.65
2022-11-28T18:52:29.484Z,99606.08
2022-11-28T18:54:57.729Z,99611.64
2022-11-28T18:57:31.314Z,99608.58
2022-11-28T19:00:01.273Z,99610.95
2022-11-28T19:02:30.889Z,99608.48
2022-11-28T19:04:59.464Z,99606.67
2022-11-28T19:07:27.999Z,99612.77
2022-11-28T19:09:56.625Z,99609.80
2022-11-28T19:12:31.769Z,99613.09
2022-11-28T19:15:02.783Z,99610.06
2022-11-28T19:17:31.397Z,99610.03
2022-11-28T19:19:59.857Z,99607.35
2022-11-28T19:22:32.023Z,99610.30
2022-11-28T19:25:00.404Z,99609.18
2022-11-28T19:27:28.871Z,99607.90
2022-11-28T19:29:57.860Z,99604.67
2022-11-28T19:32:26.208Z,99609.97
2022-11-28T19:34:55.337Z,99609.56
2022-11-28T19:37:23.860Z,99607.80
2022-11-28T19:40:02.369Z,99607.20
2022-11-28T19:42:38.280Z,99612.37
2022-11-28T19:45:07.961Z,99609.88
2022-11-28T19:47:36.956Z,99608.62
2022-11-28T19:50:09.939Z,99608.06
2022-11-28T19:52:41.159Z,99610.59
2022-11-28T19:55:10.157Z,99608.55
2022-11-28T19:57:38.901Z,99614.49
2022-11-28T20:00:08.098Z,99615.05
2022-11-28T20:02:48.147Z,99617.17
2022-11-28T20:05:19.247Z,99617.20
2022-11-28T20:07:58.188Z,99620.36
2022-11-28T20:10:30.660Z,99620.60
2022-11-28T20:13:02.299Z,99619.09
2022-11-28T20:15:32.362Z,99620.98
2022-11-28T20:18:00.814Z,99620.64
2022-11-28T20:20:30.623Z,99619.08
2022-11-28T20:23:01.713Z,99615.73
2022-11-28T20:25:30.077Z,99623.95
2022-11-28T20:27:58.380Z,99615.23
2022-11-28T20:30:26.806Z,99624.34
2022-11-28T20:32:55.712Z,99617.91
2022-11-28T20:35:30.329Z,99613.04
2022-11-28T20:38:00.685Z,99621.09
2022-11-28T20:40:30.463Z,99613.24
2022-11-28T20:43:01.297Z,99613.25
2022-11-28T20:45:29.726Z,99613.63
2022-11-28T20:47:58.804Z,99616.41
2022-11-28T20:50:28.496Z,99618.55
2022-11-28T20:52:57.589Z,99618.75
2022-11-28T20:55:28.744Z,99620.14
2022-11-28T20:57:58.911Z,99624.05
2022-11-28T21:00:28.316Z,99622.48
2022-11-28T21:02:56.612Z,99621.48
2022-11-28T21:05:25.131Z,99622.23
2022-11-28T21:07:57.044Z,99622.77
2022-11-28T21:10:26.334Z,99619.08
2022-11-28T21:12:57.228Z,99618.04
2022-11-28T21:15:26.767Z,99620.30
2022-11-28T21:17:55.652Z,99619.12
2022-11-28T21:20:24.480Z,99619.13
2022-11-28T21:22:53.837Z,99621.64
2022-11-28T21:25:26.819Z,99621.34
2022-11-28T21:27:55.225Z,99625.92
2022-11-28T21:30:23.775Z,99625.80
2022-11-28T21:32:52.243Z,99620.83
2022-11-28T21:35:23.847Z,99621.92
2022-11-28T21:37:53.120Z,99624.94
2022-11-28T21:40:22.575Z,99621.67
2022-11-28T21:42:52.759Z,99625.05
2022-11-28T21:45:24.062Z,99626.50
2022-11-28T21:47:53.061Z,99625.86
2022-11-28T21:50:23.996Z,99632.32
2022-11-28T21:52:52.566Z,99637.25
2022-11-28T21:55:22.596Z,99635.34
2022-11-28T22:01:02.753Z,99636.05
2022-11-28T22:03:32.660Z,99635.02
2022-11-28T22:06:08.210Z,99639.89
2022-11-28T22:08:37.633Z,99636.95
2022-11-28T22:11:11.389Z,99635.60
2022-11-28T22:13:42.921Z,99638.63
2022-11-28T22:16:18.397Z,99638.55
2022-11-28T22:18:51.124Z,99640.19
2022-11-28T22:24:09.723Z,99642.71
2022-11-28T22:26:38.577Z,99640.64
2022-11-28T22:29:07.179Z,99638.94
2022-11-28T22:31:36.134Z,99640.02
2022-11-28T22:34:04.925Z,99639.55
2022-11-28T22:36:34.648Z,99639.77
2022-11-28T22:39:06.511Z,99638.91
2022-11-28T22:41:35.084Z,99641.56
2022-11-28T22:48:20.331Z,99638.91
2022-11-28T22:50:48.752Z,99642.49
2022-11-28T22:53:19.583Z,99641.35
2022-11-28T22:55:48.708Z,99637.73
2022-11-28T22:58:19.701Z,99639.17
2022-11-28T23:00:50.127Z,99641.46
2022-11-28T23:07:38.810Z,99642.42
2022-11-28T23:10:10.581Z,99645.94
2022-11-28T23:12:42.084Z,99645.29
2022-11-28T23:15:19.153Z,99644.11
2022-11-28T23:17:48.193Z,99643.13
2022-11-28T23:20:22.533Z,99644.24
2022-11-28T23:22:50.877Z,99642.20
2022-11-28T23:25:19.876Z,99640.16
2022-11-28T23:27:49.726Z,99636.90
2022-11-28T23:30:24.225Z,99639.54
2022-11-28T23:33:07.088Z,99641.52
2022-11-28T23:35:43.654Z,99639.13
2022-11-28T23:38:19.079Z,99640.20
2022-11-28T23:40:57.735Z,99640.95
2022-11-28T23:44:38.391Z,99634.91
2022-11-28T23:47:10.063Z,99635.13
2022-11-28T23:49:42.645Z,99637.96
2022-11-28T23:52:26.481Z,99635.23
2022-11-28T23:54:58.372Z,99632.48
2022-11-28T23:57:29.381Z,99631.46
